Hesper, Montana
Current Conditions -  °F | °C
As of 9:53 PM on Saturday 22 Nov 2014 (Local Time) from KBIL Reporting Station
Few Clouds Few Clouds  
Wind Chill: 29°   Ceiling: Unl
Heat Index: 38°   Visibility: 10mi
Dew Point: 14°   Wind: 15mph
Humidity: 38%   Direction: 290°WNW
Pressure: 29.6"   Gusts: 26mph
Location:  45.7752°N, 108.58°W
Report Text: KBIL 230453Z 29013G23KT 10SM FEW150 03/M10 A2960 RMK AO2 PK WND 30026/0434 SLP028 T00331100 $
Loading
Personal Weather Stations






























Interactive Weather Map New forecast layout! Learn more

10-Day Weather Forecast

Advertisements
Track Severe Weather on mobile